Time;durP1;ratioP1;P1;durP2;ratioP2;P2;SDS_P1;SDS_P2;PMS_P1;PMS_P2;Temp;Humidity;BMP_temperature;BMP_pressure;BME280_temperature;BME280_humidity;BME280_pressure;Samples;Min_cycle;Max_cycle;Signal;HPM_P1;HPM_P2
2022/08/12 00:44:23;;;;;;;1.40;1.20;;;;;;;15.59;80.95;101378.06;5032318;28;20243;-69
2022/08/12 00:46:51;;;;;;;2.03;1.47;;;;;;;15.71;84.65;101377.63;5032066;28;20235;-70
2022/08/12 00:49:20;;;;;;;1.60;1.43;;;;;;;15.63;82.60;101384.91;5033146;28;20211;-69
2022/08/12 00:54:37;;;;;;;1.57;1.23;;;;;;;15.62;85.55;101379.72;5042522;28;20212;-67
2022/08/12 00:57:07;;;;;;;1.63;1.47;;;;;;;15.65;86.39;101376.97;5060818;28;20195;-68
2022/08/12 00:59:35;;;;;;;2.13;1.53;;;;;;;15.50;84.87;101381.88;5056603;28;20207;-68
2022/08/12 01:02:04;;;;;;;1.93;1.23;;;;;;;15.36;84.95;101384.13;5059981;28;20260;-67
2022/08/12 01:12:47;;;;;;;2.50;1.70;;;;;;;15.31;86.26;101386.88;5041766;28;20211;-70
2022/08/12 01:15:13;;;;;;;1.83;1.50;;;;;;;15.21;86.81;101374.13;5041737;28;20215;-70
2022/08/12 01:17:43;;;;;;;2.30;1.90;;;;;;;15.15;88.43;101377.81;5036042;28;20637;-70
2022/08/12 01:20:16;;;;;;;2.80;1.83;;;;;;;14.98;86.55;101383.59;5027238;28;20571;-70
2022/08/12 01:22:58;;;;;;;2.40;1.50;;;;;;;14.99;88.04;101381.88;5034039;28;20294;-70
2022/08/12 01:25:31;;;;;;;2.20;1.50;;;;;;;14.97;89.57;101381.91;5033668;28;20778;-70
2022/08/12 01:28:01;;;;;;;3.43;1.30;;;;;;;14.84;89.47;101373.53;5030155;28;20769;-71
2022/08/12 01:30:32;;;;;;;2.73;1.40;;;;;;;14.82;89.54;101377.13;5028945;28;20208;-69
2022/08/12 01:33:02;;;;;;;1.87;1.33;;;;;;;14.77;90.40;101375.53;5036573;28;20231;-71
2022/08/12 01:35:31;;;;;;;3.10;1.70;;;;;;;14.81;91.73;101376.28;5037909;28;20305;-70
2022/08/12 01:38:01;;;;;;;2.53;1.70;;;;;;;14.83;91.51;101378.84;5034276;28;20211;-69
2022/08/12 01:40:31;;;;;;;1.60;1.50;;;;;;;14.65;90.95;101378.53;5034842;28;20211;-70
2022/08/12 01:43:03;;;;;;;2.57;1.90;;;;;;;14.58;93.51;101370.00;5029417;28;20210;-70
2022/08/12 01:45:31;;;;;;;2.03;1.60;;;;;;;14.54;93.91;101370.09;5036477;28;20232;-70
2022/08/12 01:48:05;;;;;;;2.17;1.80;;;;;;;14.50;93.42;101373.72;5034946;28;20215;-70
2022/08/12 01:50:39;;;;;;;2.70;1.57;;;;;;;14.54;95.56;101370.09;5034519;28;20198;-70
2022/08/12 01:53:09;;;;;;;1.77;1.60;;;;;;;14.43;95.42;101366.94;5019511;28;20204;-70
2022/08/12 01:55:41;;;;;;;3.60;1.93;;;;;;;14.31;95.08;101369.03;5031604;28;20306;-70
2022/08/12 01:58:19;;;;;;;2.00;1.53;;;;;;;14.24;95.28;101371.88;5035249;28;20203;-70
2022/08/12 02:00:54;;;;;;;3.07;1.43;;;;;;;14.33;96.99;101369.81;5031778;28;20205;-70
2022/08/12 02:12:14;;;;;;;1.60;1.50;;;;;;;14.11;97.16;101364.38;5033134;28;20201;-70
2022/08/12 02:14:51;;;;;;;2.43;1.60;;;;;;;14.12;97.49;101368.69;5025738;28;20225;-70
2022/08/12 02:17:30;;;;;;;2.10;1.50;;;;;;;14.05;97.12;101369.78;5026917;28;20204;-70
2022/08/12 02:20:05;;;;;;;2.27;1.53;;;;;;;14.00;98.12;101366.44;5036244;28;20202;-69
2022/08/12 02:22:37;;;;;;;1.73;1.40;;;;;;;14.02;98.77;101364.66;5028951;28;20202;-70
2022/08/12 02:25:09;;;;;;;3.03;1.83;;;;;;;14.01;99.49;101369.00;5033321;28;20226;-70
2022/08/12 02:27:39;;;;;;;5.30;2.30;;;;;;;13.98;99.73;101363.88;5028633;28;20713;-70
2022/08/12 02:30:08;;;;;;;2.57;1.70;;;;;;;13.90;99.61;101365.84;5030819;28;20209;-70
2022/08/12 02:32:37;;;;;;;3.33;1.67;;;;;;;13.89;100.00;101369.38;5031881;28;20227;-69
2022/08/12 02:35:06;;;;;;;2.00;1.70;;;;;;;14.06;100.00;101365.41;5030173;28;20220;-70
2022/08/12 02:37:35;;;;;;;2.47;1.60;;;;;;;13.94;100.00;101362.22;5030993;28;20207;-70
2022/08/12 02:40:03;;;;;;;1.70;1.53;;;;;;;13.94;100.00;101367.47;5031411;28;20668;-70
2022/08/12 02:42:34;;;;;;;3.87;2.00;;;;;;;13.93;100.00;101355.28;5029225;28;20919;-71
2022/08/12 02:45:07;;;;;;;3.87;1.57;;;;;;;13.82;99.97;101360.84;5025332;28;20223;-71
2022/08/12 02:47:38;;;;;;;1.77;1.53;;;;;;;13.73;99.07;101360.22;5023544;28;20201;-70
2022/08/12 02:50:07;;;;;;;2.63;1.63;;;;;;;13.82;100.00;101366.06;5033048;28;20312;-70
2022/08/12 02:52:34;;;;;;;2.43;2.10;;;;;;;13.86;99.52;101363.34;5023181;28;20196;-71
2022/08/12 02:55:11;;;;;;;2.00;1.80;;;;;;;13.83;100.00;101362.53;5028925;28;20217;-70
2022/08/12 02:57:38;;;;;;;1.73;1.50;;;;;;;13.73;100.00;101355.81;5020865;28;20202;-70
2022/08/12 03:00:07;;;;;;;3.27;1.60;;;;;;;13.89;100.00;101355.41;5034374;28;20207;-70
2022/08/12 03:02:37;;;;;;;2.83;2.00;;;;;;;13.84;100.00;101358.16;5029464;28;20202;-70
2022/08/12 03:05:04;;;;;;;2.70;2.10;;;;;;;13.71;100.00;101357.63;5026125;28;20287;-70
2022/08/12 03:07:34;;;;;;;2.17;1.57;;;;;;;13.58;100.00;101364.97;5024848;28;20636;-71
2022/08/12 03:10:05;;;;;;;2.57;1.83;;;;;;;13.77;100.00;101365.34;5023675;28;20199;-69
2022/08/12 03:12:34;;;;;;;2.00;1.80;;;;;;;13.72;100.00;101364.59;5026316;28;20883;-70
2022/08/12 03:15:08;;;;;;;1.80;1.67;;;;;;;13.74;100.00;101364.56;5030036;28;20235;-70
2022/08/12 03:17:43;;;;;;;1.70;1.53;;;;;;;13.69;100.00;101366.44;5025333;28;20200;-69
2022/08/12 03:20:10;;;;;;;2.13;1.90;;;;;;;13.57;100.00;101376.34;5020529;28;20714;-70
2022/08/12 03:22:39;;;;;;;2.50;1.93;;;;;;;13.53;100.00;101377.34;5035676;28;20227;-70
2022/08/12 03:25:06;;;;;;;2.13;1.87;;;;;;;13.55;100.00;101374.69;5029760;28;20751;-68
2022/08/12 03:27:32;;;;;;;3.57;2.07;;;;;;;13.61;100.00;101375.38;5032439;28;20199;-70
2022/08/12 03:29:59;;;;;;;2.50;1.43;;;;;;;13.42;100.00;101375.00;5033032;28;20193;-70
2022/08/12 03:32:31;;;;;;;2.53;2.10;;;;;;;13.48;100.00;101373.13;5035804;28;20204;-70
2022/08/12 03:35:00;;;;;;;2.47;1.73;;;;;;;13.53;100.00;101374.72;5032398;28;20687;-70
2022/08/12 03:37:29;;;;;;;3.13;2.20;;;;;;;13.33;100.00;101374.38;5026014;28;20241;-70
2022/08/12 03:39:55;;;;;;;2.93;1.57;;;;;;;13.43;100.00;101375.84;5036632;28;20681;-71
2022/08/12 03:42:26;;;;;;;2.13;1.80;;;;;;;13.41;100.00;101373.28;5027496;28;20283;-70
2022/08/12 04:01:39;;;;;;;2.10;1.87;;;;;;;13.24;100.00;101383.28;5020625;28;20199;-71
2022/08/12 04:04:08;;;;;;;3.47;1.50;;;;;;;13.30;100.00;101391.00;5024368;28;20208;-69
2022/08/12 04:06:41;;;;;;;2.13;1.77;;;;;;;13.30;100.00;101388.38;5029040;28;20555;-71
2022/08/12 04:09:09;;;;;;;2.03;1.73;;;;;;;13.31;100.00;101391.84;5033696;28;20191;-70
2022/08/12 04:14:22;;;;;;;2.00;1.70;;;;;;;13.20;100.00;101392.97;5026027;28;20264;-70
2022/08/12 04:16:50;;;;;;;3.93;1.60;;;;;;;13.25;100.00;101391.09;5024323;28;20247;-70
2022/08/12 04:19:19;;;;;;;5.13;1.93;;;;;;;13.39;100.00;101384.72;5028932;28;20218;-69
2022/08/12 04:21:45;;;;;;;2.43;2.10;;;;;;;13.30;100.00;101390.13;5027040;28;20200;-70
2022/08/12 04:24:12;;;;;;;3.43;2.03;;;;;;;13.48;100.00;101387.06;5025600;28;20193;-70
2022/08/12 04:26:39;;;;;;;2.10;1.80;;;;;;;13.37;100.00;101387.34;5030716;28;20248;-70
2022/08/12 04:29:09;;;;;;;3.03;2.03;;;;;;;13.64;100.00;101380.53;5025182;28;20206;-70
2022/08/12 04:31:38;;;;;;;2.67;1.87;;;;;;;13.75;100.00;101390.72;5029186;28;20659;-70
2022/08/12 04:34:06;;;;;;;3.63;2.30;;;;;;;13.86;100.00;101385.19;5042190;28;20202;-69
2022/08/12 04:36:35;;;;;;;4.33;2.30;;;;;;;14.02;100.00;101389.09;5018907;28;20728;-70
2022/08/12 04:39:04;;;;;;;8.67;1.93;;;;;;;14.08;100.00;101398.53;5039918;28;20203;-70
2022/08/12 04:41:31;;;;;;;2.40;1.90;;;;;;;14.17;100.00;101400.03;5025285;28;20707;-70
2022/08/12 04:43:59;;;;;;;4.13;2.30;;;;;;;14.12;100.00;101402.78;5018232;28;20732;-70
2022/08/12 04:46:26;;;;;;;6.53;2.20;;;;;;;14.24;100.00;101400.72;5019612;28;20701;-70
2022/08/12 04:48:53;;;;;;;5.00;2.07;;;;;;;14.27;100.00;101398.88;5000048;28;988312;-69
2022/08/12 04:51:20;;;;;;;2.43;2.00;;;;;;;14.33;100.00;101384.72;5043776;28;20215;-69
2022/08/12 04:53:49;;;;;;;4.10;1.80;;;;;;;14.51;100.00;101401.66;5045645;28;20218;-71
2022/08/12 04:56:16;;;;;;;2.50;1.90;;;;;;;14.52;96.25;101399.00;5030997;28;20220;-71
2022/08/12 04:58:42;;;;;;;2.13;1.80;;;;;;;14.63;91.53;101406.56;5030666;28;20263;-70
2022/08/12 05:01:09;;;;;;;2.03;1.57;;;;;;;14.77;89.35;101408.78;5027542;28;20576;-71
2022/08/12 05:03:37;;;;;;;3.90;1.73;;;;;;;15.02;94.91;101410.63;5032833;28;20251;-71
2022/08/12 05:06:04;;;;;;;1.80;1.57;;;;;;;15.00;89.78;101413.28;5039401;28;20939;-71
2022/08/12 05:08:31;;;;;;;2.80;1.63;;;;;;;15.12;87.62;101406.78;5032805;28;20222;-70
2022/08/12 05:10:59;;;;;;;1.60;1.40;;;;;;;15.26;89.85;101422.09;5035731;28;20205;-70
2022/08/12 05:13:29;;;;;;;2.23;1.70;;;;;;;15.31;88.82;101418.41;5023762;28;20211;-71
2022/08/12 05:15:56;;;;;;;6.83;1.90;;;;;;;15.36;86.96;101425.31;5029623;28;20216;-70
2022/08/12 05:18:22;;;;;;;1.57;1.43;;;;;;;15.51;84.88;101423.00;5027954;28;20669;-70
2022/08/12 05:20:49;;;;;;;1.83;1.47;;;;;;;15.61;84.54;101425.31;5030299;28;20199;-70
2022/08/12 05:23:18;;;;;;;1.77;1.63;;;;;;;15.74;83.22;101434.47;5032098;28;20210;-71
2022/08/12 05:25:46;;;;;;;2.60;1.30;;;;;;;15.83;82.50;101435.97;5035827;28;20235;-70
2022/08/12 05:28:15;;;;;;;2.40;1.67;;;;;;;15.95;81.77;101434.69;5038641;28;20207;-71
2022/08/12 05:30:42;;;;;;;1.40;1.30;;;;;;;16.07;81.09;101424.56;5026678;28;20283;-69
2022/08/12 05:33:10;;;;;;;1.77;1.67;;;;;;;16.21;79.98;101429.31;5037271;28;20611;-72
2022/08/12 05:35:39;;;;;;;1.67;1.50;;;;;;;16.36;79.84;101434.94;5023539;28;20221;-71
2022/08/12 05:40:50;;;;;;;2.40;1.50;;;;;;;16.60;79.46;101439.28;5031304;28;20246;-69
2022/08/12 05:43:19;;;;;;;1.77;1.60;;;;;;;16.69;78.49;101443.31;5031425;28;20260;-69
2022/08/12 05:45:46;;;;;;;1.80;1.60;;;;;;;16.76;78.62;101442.19;5030155;28;20220;-70
2022/08/12 05:48:14;;;;;;;3.27;1.70;;;;;;;16.85;78.09;101435.72;5027692;28;20734;-70
2022/08/12 05:50:41;;;;;;;1.83;1.57;;;;;;;16.98;76.51;101441.34;5035565;28;20227;-70
2022/08/12 05:53:07;;;;;;;2.33;1.50;;;;;;;17.10;75.70;101451.41;5028065;28;20610;-70
2022/08/12 05:55:34;;;;;;;2.10;1.50;;;;;;;17.26;74.51;101450.78;5030856;28;20249;-71
2022/08/12 05:58:01;;;;;;;1.83;1.50;;;;;;;17.38;74.77;101455.56;5026708;28;20736;-71
2022/08/12 06:00:30;;;;;;;1.87;1.67;;;;;;;17.49;74.38;101452.47;5034880;28;20202;-70
2022/08/12 06:02:59;;;;;;;2.07;1.50;;;;;;;17.56;73.41;101460.03;5026654;28;20241;-70
2022/08/12 06:05:26;;;;;;;1.20;1.13;;;;;;;17.66;73.45;101457.88;5030468;28;20903;-71
2022/08/12 06:07:54;;;;;;;1.73;1.40;;;;;;;17.77;74.21;101457.41;5036128;28;20581;-70
2022/08/12 06:10:20;;;;;;;3.60;1.67;;;;;;;17.88;73.32;101460.47;5030350;28;20211;-69
2022/08/12 06:12:48;;;;;;;1.40;1.30;;;;;;;18.03;72.81;101466.88;5036119;28;20208;-70
2022/08/12 06:15:14;;;;;;;2.17;1.30;;;;;;;18.20;70.92;101473.19;5020165;28;20216;-70
2022/08/12 06:17:42;;;;;;;1.63;1.47;;;;;;;18.40;69.07;101466.97;5031349;28;20254;-71
2022/08/12 06:20:12;;;;;;;1.50;1.40;;;;;;;18.45;67.66;101465.88;5030627;28;20200;-72
2022/08/12 06:22:38;;;;;;;1.63;1.17;;;;;;;18.53;67.37;101473.44;5027154;28;20211;-70
2022/08/12 06:25:06;;;;;;;1.60;1.40;;;;;;;18.63;67.54;101468.59;5021709;28;20227;-72
2022/08/12 06:27:33;;;;;;;1.93;1.27;;;;;;;18.78;66.89;101465.22;5034536;28;20215;-70
2022/08/12 06:30:01;;;;;;;1.53;1.30;;;;;;;18.93;65.56;101466.31;5035515;28;20249;-72
2022/08/12 06:32:28;;;;;;;2.40;1.57;;;;;;;19.02;65.75;101460.56;5027750;28;20282;-70
2022/08/12 06:37:28;;;;;;;1.87;1.10;;;;;;;19.32;64.19;101467.09;4985822;28;20228;-71
2022/08/12 06:39:54;;;;;;;3.20;1.10;;;;;;;19.39;63.41;101469.34;4952553;28;20224;-71
2022/08/12 06:45:05;;;;;;;1.27;1.07;;;;;;;19.61;62.46;101468.25;4981060;28;20201;-71
2022/08/12 06:47:36;;;;;;;1.20;1.10;;;;;;;19.79;61.58;101466.53;4995770;28;20225;-71
2022/08/12 06:50:03;;;;;;;2.67;1.40;;;;;;;19.94;60.41;101467.50;4995930;28;20815;-71
2022/08/12 06:52:31;;;;;;;2.80;1.20;;;;;;;20.01;59.90;101472.38;4998103;28;20889;-71
2022/08/12 06:54:58;;;;;;;1.17;1.07;;;;;;;20.07;60.47;101468.59;4995020;28;20192;-71
2022/08/12 06:57:26;;;;;;;1.20;1.10;;;;;;;20.13;60.21;101462.94;4997001;28;20296;-72
2022/08/12 06:59:53;;;;;;;0.70;0.70;;;;;;;20.34;59.12;101476.00;4992015;28;20268;-71
2022/08/12 07:02:21;;;;;;;1.03;0.90;;;;;;;20.43;58.75;101463.09;4995369;28;20208;-71
2022/08/12 07:04:47;;;;;;;2.13;1.10;;;;;;;20.52;58.98;101466.19;4987037;28;20194;-71
2022/08/12 07:07:15;;;;;;;1.27;1.17;;;;;;;20.58;58.11;101464.06;4990570;28;20221;-71
2022/08/12 07:09:43;;;;;;;1.07;0.97;;;;;;;20.71;57.64;101460.75;4985548;28;20205;-71
2022/08/12 07:12:18;;;;;;;1.33;1.10;;;;;;;20.85;57.35;101466.13;4971224;28;20204;-71
2022/08/12 07:14:45;;;;;;;1.40;1.20;;;;;;;20.94;56.25;101470.06;4967482;28;20287;-71
2022/08/12 07:17:13;;;;;;;1.43;1.20;;;;;;;20.99;57.05;101465.38;4986956;28;20222;-71
2022/08/12 07:19:41;;;;;;;1.70;1.50;;;;;;;20.94;56.61;101472.72;4984150;28;20674;-71
2022/08/12 07:22:12;;;;;;;1.40;1.10;;;;;;;20.79;55.87;101470.00;4987175;28;20205;-71
2022/08/12 07:24:38;;;;;;;2.03;1.10;;;;;;;20.69;56.38;101474.09;4987714;28;20280;-71
2022/08/12 07:27:06;;;;;;;1.53;1.20;;;;;;;20.63;57.01;101474.41;4991061;28;20614;-71
2022/08/12 07:29:33;;;;;;;2.30;1.30;;;;;;;20.60;56.74;101474.56;4988084;28;20193;-71
2022/08/12 07:32:01;;;;;;;1.40;1.10;;;;;;;20.57;57.02;101480.88;4992058;28;20205;-71
2022/08/12 07:34:27;;;;;;;1.43;1.20;;;;;;;20.61;56.24;101482.47;4990281;28;20231;-71
2022/08/12 07:36:53;;;;;;;2.87;1.20;;;;;;;20.78;56.62;101483.31;4992868;28;20221;-71
2022/08/12 07:39:20;;;;;;;1.17;1.07;;;;;;;20.92;55.68;101485.22;4974435;28;20209;-71
2022/08/12 07:41:46;;;;;;;2.50;1.13;;;;;;;21.09;54.77;101477.16;4992294;28;20555;-71
2022/08/12 07:44:14;;;;;;;2.17;1.33;;;;;;;21.28;55.72;101481.41;4979028;28;20213;-71
2022/08/12 07:46:42;;;;;;;5.50;1.30;;;;;;;21.44;54.52;101474.28;4990573;28;20927;-71
2022/08/12 07:49:11;;;;;;;1.40;1.30;;;;;;;21.57;55.37;101478.91;4987501;28;20217;-71
2022/08/12 07:51:39;;;;;;;1.50;1.17;;;;;;;21.81;53.23;101479.22;4997082;28;20680;-71
2022/08/12 07:54:08;;;;;;;2.53;1.30;;;;;;;22.02;53.92;101477.94;4989378;28;20202;-71
2022/08/12 07:56:36;;;;;;;2.20;1.63;;;;;;;22.16;51.87;101477.06;4988636;28;20592;-71
2022/08/12 07:59:03;;;;;;;1.20;1.03;;;;;;;22.16;51.55;101486.84;4988133;28;20651;-71
2022/08/12 08:01:32;;;;;;;3.00;1.30;;;;;;;22.32;52.45;101477.00;4995954;28;20565;-71
2022/08/12 08:06:44;;;;;;;1.20;1.00;;;;;;;22.37;50.09;101472.25;4990507;28;20225;-71
2022/08/12 08:09:13;;;;;;;3.13;1.50;;;;;;;22.53;50.24;101473.94;4994428;28;20200;-71
2022/08/12 08:14:27;;;;;;;2.17;1.10;;;;;;;22.71;49.38;101471.91;4984738;28;20232;-71
2022/08/12 08:16:56;;;;;;;1.33;1.13;;;;;;;22.95;49.03;101466.84;4986505;28;20220;-71
2022/08/12 08:19:22;;;;;;;1.80;1.27;;;;;;;22.97;48.50;101470.25;4989109;28;20572;-71
2022/08/12 08:21:49;;;;;;;1.10;1.00;;;;;;;23.28;48.38;101466.47;4970888;28;20398;-71
2022/08/12 08:24:16;;;;;;;1.93;1.20;;;;;;;23.44;47.85;101466.28;4986632;28;20208;-71
2022/08/12 08:26:44;;;;;;;2.17;0.93;;;;;;;23.50;47.64;101470.34;4982618;28;20244;-72
2022/08/12 08:29:11;;;;;;;1.40;1.30;;;;;;;23.62;47.31;101472.16;4985329;28;20216;-71
2022/08/12 08:31:40;;;;;;;1.17;1.00;;;;;;;23.69;46.88;101461.97;4989493;28;20216;-72
2022/08/12 08:34:07;;;;;;;5.75;1.20;;;;;;;23.69;46.72;101468.13;4992511;28;20228;-72
2022/08/12 08:36:34;;;;;;;1.73;1.10;;;;;;;23.65;46.68;101463.13;4996033;28;20228;-71
2022/08/12 08:39:00;;;;;;;1.10;1.00;;;;;;;23.77;46.75;101471.13;4972029;28;20202;-71
2022/08/12 08:44:11;;;;;;;1.20;1.00;;;;;;;24.05;46.33;101466.59;4993718;28;20235;-71
2022/08/12 08:46:38;;;;;;;1.20;1.13;;;;;;;24.07;46.03;101467.34;4991621;28;20232;-71
2022/08/12 08:49:04;;;;;;;0.90;0.90;;;;;;;24.07;45.68;101475.31;4995382;28;20201;-71
2022/08/12 08:51:33;;;;;;;1.30;1.17;;;;;;;23.71;46.53;101473.34;4996657;28;20734;-71
2022/08/12 08:53:59;;;;;;;2.80;0.63;;;;;;;24.12;46.54;101467.88;4995792;28;20194;-71
2022/08/12 08:56:27;;;;;;;0.80;0.80;;;;;;;24.53;45.70;101476.53;4984250;28;20576;-71
2022/08/12 08:58:54;;;;;;;1.33;1.00;;;;;;;24.44;44.56;101466.53;4993963;28;20654;-71
2022/08/12 09:01:21;;;;;;;0.90;0.90;;;;;;;24.22;44.62;101464.53;4994856;28;20194;-71
2022/08/12 09:03:48;;;;;;;0.88;0.88;;;;;;;24.03;45.15;101456.97;4982713;28;20239;-71
2022/08/12 09:06:14;;;;;;;1.15;1.02;;;;;;;23.94;44.81;101447.81;4987839;28;20217;-71
2022/08/12 09:08:43;;;;;;;1.00;0.90;;;;;;;24.16;45.50;101447.19;4992229;28;20224;-71
2022/08/12 09:13:53;;;;;;;2.55;1.00;;;;;;;24.42;44.22;101445.34;4984674;28;20612;-71
2022/08/12 09:16:20;;;;;;;1.00;0.90;;;;;;;24.56;43.03;101447.03;4988714;28;20221;-71
2022/08/12 09:18:46;;;;;;;0.93;0.90;;;;;;;24.51;43.43;101452.66;4989316;28;20197;-71
2022/08/12 09:21:13;;;;;;;0.90;0.90;;;;;;;24.54;42.96;101449.81;4996404;28;20204;-71
2022/08/12 09:23:39;;;;;;;0.88;0.88;;;;;;;24.67;42.87;101440.94;4988857;28;20205;-71
2022/08/12 09:26:09;;;;;;;0.80;0.80;;;;;;;24.95;42.50;101439.75;4989364;28;20223;-71
2022/08/12 09:28:35;;;;;;;0.82;0.82;;;;;;;24.67;42.20;101436.44;4996195;28;20232;-72
2022/08/12 09:31:04;;;;;;;0.98;0.80;;;;;;;24.39;42.24;101441.06;4990549;28;20201;-72
2022/08/12 09:33:32;;;;;;;0.90;0.90;;;;;;;24.48;42.52;101447.53;4991121;28;20283;-72
2022/08/12 09:35:59;;;;;;;1.50;0.95;;;;;;;24.52;42.65;101446.38;4990705;28;20236;-71
2022/08/12 09:38:28;;;;;;;1.42;1.00;;;;;;;24.78;41.60;101446.31;4994074;28;20605;-71
2022/08/12 09:40:55;;;;;;;0.73;0.73;;;;;;;24.84;41.96;101442.38;4989459;28;20205;-71
2022/08/12 09:46:07;;;;;;;1.20;1.10;;;;;;;24.99;41.95;101443.03;4991760;28;20213;-71
2022/08/12 09:48:33;;;;;;;1.13;1.02;;;;;;;24.98;41.73;101431.53;4990250;28;20217;-72
2022/08/12 09:51:00;;;;;;;1.13;0.90;;;;;;;25.09;41.47;101433.38;4992700;28;20272;-71
2022/08/12 09:53:27;;;;;;;1.10;1.00;;;;;;;25.12;40.74;101431.34;4991643;28;20751;-71
2022/08/12 09:55:56;;;;;;;0.77;0.77;;;;;;;25.18;41.49;101427.34;4987837;28;20216;-72
2022/08/12 09:58:27;;;;;;;0.70;0.70;;;;;;;25.44;40.21;101435.25;4984135;28;20466;-71
2022/08/12 10:00:56;;;;;;;2.55;0.98;;;;;;;25.26;40.62;101426.81;4989296;28;20259;-71
2022/08/12 10:03:25;;;;;;;1.00;0.90;;;;;;;25.43;40.42;101422.84;4986531;28;20224;-71
2022/08/12 10:05:52;;;;;;;0.85;0.80;;;;;;;25.65;40.06;101424.72;4990704;28;20225;-71
2022/08/12 10:08:20;;;;;;;1.13;0.93;;;;;;;25.97;39.38;101421.38;4991277;28;20235;-71
2022/08/12 10:13:45;;;;;;;1.25;1.15;;;;;;;25.98;39.81;101399.91;4987721;28;20672;-71
2022/08/12 10:16:13;;;;;;;2.80;0.82;;;;;;;26.10;38.94;101392.72;4994936;28;20223;-71
2022/08/12 10:18:42;;;;;;;1.90;0.77;;;;;;;25.86;39.77;101401.69;4992614;28;20204;-71
2022/08/12 10:21:09;;;;;;;1.02;0.80;;;;;;;25.83;39.44;101398.41;4988944;28;20201;-71
2022/08/12 10:23:37;;;;;;;0.82;0.70;;;;;;;26.04;39.41;101385.19;4993314;28;20197;-72
2022/08/12 10:31:33;;;;;;;2.60;1.02;;;;;;;25.54;39.86;101390.84;4991992;28;20657;-72
2022/08/12 10:34:00;;;;;;;1.20;0.70;;;;;;;25.81;40.05;101381.66;4990905;28;20200;-72
2022/08/12 10:36:26;;;;;;;1.02;0.95;;;;;;;26.17;39.19;101377.88;4989666;28;20217;-72
2022/08/12 10:38:53;;;;;;;0.98;0.90;;;;;;;26.57;38.12;101371.97;4991007;28;20654;-72
2022/08/12 10:44:06;;;;;;;0.80;0.80;;;;;;;26.34;38.55;101370.34;4983821;28;20201;-72
2022/08/12 10:46:33;;;;;;;0.85;0.85;;;;;;;26.23;37.48;101373.88;4985259;28;20224;-72
2022/08/12 10:49:00;;;;;;;0.80;0.80;;;;;;;25.97;38.28;101379.50;4985390;28;20312;-72
2022/08/12 10:51:30;;;;;;;0.88;0.85;;;;;;;26.16;38.65;101372.69;4985892;28;20197;-72
2022/08/12 10:53:56;;;;;;;2.13;0.82;;;;;;;26.04;38.77;101361.16;4986586;28;20232;-71
2022/08/12 10:56:23;;;;;;;2.80;1.10;;;;;;;26.24;38.90;101360.41;4983844;28;20493;-71
2022/08/12 10:58:50;;;;;;;1.05;0.93;;;;;;;26.14;38.72;101362.13;4983998;28;20197;-72
2022/08/12 11:01:18;;;;;;;1.00;0.93;;;;;;;26.57;38.55;101345.22;4990254;28;20201;-72
2022/08/12 11:03:45;;;;;;;1.08;1.00;;;;;;;26.57;38.42;101344.38;4992724;28;20569;-72
2022/08/12 11:06:11;;;;;;;2.08;1.25;;;;;;;26.92;38.50;101351.34;4988997;28;20214;-72
2022/08/12 11:08:39;;;;;;;1.02;1.00;;;;;;;27.15;39.04;101338.69;4989438;28;20224;-72
2022/08/12 11:11:07;;;;;;;0.85;0.85;;;;;;;27.44;36.85;101341.56;4988730;28;20197;-71
2022/08/12 11:13:34;;;;;;;0.98;0.70;;;;;;;27.59;37.19;101344.72;4992515;28;20566;-72
2022/08/12 11:16:00;;;;;;;1.58;1.20;;;;;;;27.76;37.63;101338.75;4999515;28;20224;-72
2022/08/12 11:18:28;;;;;;;1.73;0.95;;;;;;;27.92;37.02;101332.06;4990371;28;20551;-72
2022/08/12 11:20:54;;;;;;;0.80;0.80;;;;;;;27.84;36.80;101324.66;4989413;28;20235;-72
2022/08/12 11:23:21;;;;;;;1.27;0.80;;;;;;;28.00;36.67;101321.50;4974205;28;20207;-72
2022/08/12 11:25:48;;;;;;;1.02;0.95;;;;;;;27.95;35.93;101321.09;4991453;28;20984;-72
2022/08/12 11:28:15;;;;;;;1.08;0.98;;;;;;;28.13;36.17;101315.91;4971284;28;20233;-72
2022/08/12 11:30:42;;;;;;;1.00;0.90;;;;;;;28.17;36.60;101319.16;4993323;28;20207;-72
2022/08/12 11:33:09;;;;;;;1.20;0.93;;;;;;;28.13;35.63;101321.25;4990075;28;20287;-72
2022/08/12 11:35:37;;;;;;;0.98;0.80;;;;;;;28.12;36.83;101309.69;4991898;28;20760;-72
2022/08/12 11:38:05;;;;;;;0.90;0.90;;;;;;;28.25;35.70;101300.53;4991484;28;20225;-72
2022/08/12 11:40:31;;;;;;;1.02;1.02;;;;;;;28.43;36.48;101309.59;4988575;28;20194;-72
2022/08/12 11:42:59;;;;;;;0.82;0.82;;;;;;;28.55;35.01;101310.34;4992356;28;20201;-72
2022/08/12 11:45:25;;;;;;;1.73;1.10;;;;;;;28.66;34.97;101312.03;4993675;28;20296;-72
2022/08/12 11:47:53;;;;;;;1.30;0.90;;;;;;;28.81;35.87;101305.25;4998018;28;20216;-72
2022/08/12 11:50:20;;;;;;;1.10;1.00;;;;;;;28.91;35.25;101302.53;4990524;28;20193;-72
2022/08/12 11:52:48;;;;;;;1.00;0.90;;;;;;;28.97;35.18;101296.59;4986213;28;20208;-72
2022/08/12 11:55:15;;;;;;;0.88;0.82;;;;;;;29.13;35.10;101292.44;4992238;28;20231;-72
2022/08/12 11:57:49;;;;;;;1.00;0.80;;;;;;;29.08;33.69;101309.00;4998690;28;20201;-72
2022/08/12 12:00:16;;;;;;;1.02;0.93;;;;;;;28.78;33.99;101304.69;4994748;28;20205;-72
2022/08/12 12:02:42;;;;;;;1.08;0.88;;;;;;;29.09;34.10;101299.94;4988181;28;20201;-72
2022/08/12 12:05:09;;;;;;;1.15;1.05;;;;;;;28.58;33.89;101296.63;4988534;28;20216;-72
2022/08/12 12:07:38;;;;;;;1.38;1.00;;;;;;;28.77;34.01;101298.44;4986344;28;20319;-72
2022/08/12 12:10:06;;;;;;;0.93;0.93;;;;;;;28.61;33.83;101298.19;4988736;28;20577;-72
2022/08/12 12:12:33;;;;;;;1.05;0.98;;;;;;;28.68;34.15;101293.94;4986422;28;20201;-72
2022/08/12 12:14:59;;;;;;;1.08;0.90;;;;;;;28.38;34.73;101279.66;4987615;28;20224;-72
2022/08/12 12:17:27;;;;;;;0.98;0.93;;;;;;;28.02;35.11;101278.50;4984782;28;20701;-72
2022/08/12 12:19:54;;;;;;;1.20;1.10;;;;;;;27.87;35.48;101283.38;4987138;28;20208;-72
2022/08/12 12:22:21;;;;;;;0.77;0.77;;;;;;;27.92;35.51;101281.16;4989276;28;20201;-72
2022/08/12 12:24:49;;;;;;;0.88;0.80;;;;;;;28.24;34.56;101278.25;4988082;28;20289;-72
2022/08/12 12:27:19;;;;;;;1.10;1.00;;;;;;;28.43;34.44;101276.56;4989424;28;20299;-72
2022/08/12 12:29:46;;;;;;;2.03;0.93;;;;;;;28.64;34.34;101277.28;4992991;28;20198;-72
2022/08/12 12:32:12;;;;;;;1.27;1.00;;;;;;;28.96;34.30;101278.78;4987897;28;20595;-72
2022/08/12 12:34:38;;;;;;;3.22;1.20;;;;;;;28.96;33.86;101276.13;4986153;28;20797;-72
2022/08/12 12:37:05;;;;;;;0.90;0.90;;;;;;;29.03;33.53;101268.34;4990490;28;20224;-71
2022/08/12 12:39:31;;;;;;;0.98;0.98;;;;;;;29.07;34.08;101273.25;4990378;28;20201;-72
2022/08/12 12:41:58;;;;;;;0.90;0.90;;;;;;;29.08;33.95;101268.75;4988278;28;20707;-71
2022/08/12 12:44:25;;;;;;;1.13;1.02;;;;;;;29.25;34.23;101264.47;4982002;28;22255;-72
2022/08/12 12:46:52;;;;;;;1.40;1.17;;;;;;;29.37;33.29;101259.78;4990892;28;20221;-72
2022/08/12 12:49:18;;;;;;;1.30;1.20;;;;;;;29.10;33.39;101258.72;4989927;28;20605;-72
2022/08/12 12:51:44;;;;;;;1.23;1.00;;;;;;;29.12;33.05;101266.63;4989734;28;20287;-72
2022/08/12 12:54:11;;;;;;;1.20;1.10;;;;;;;29.23;33.70;101248.53;4995841;28;20246;-71
2022/08/12 12:56:40;;;;;;;1.10;1.00;;;;;;;29.26;34.13;101250.06;4994206;28;20578;-72
2022/08/12 12:59:07;;;;;;;2.03;1.13;;;;;;;29.26;33.83;101250.06;4990234;28;20308;-71
2022/08/12 13:01:37;;;;;;;3.50;0.90;;;;;;;28.75;34.47;101244.09;4991270;28;20216;-72
2022/08/12 13:04:04;;;;;;;1.10;1.00;;;;;;;28.20;35.06;101239.31;4991091;28;20601;-72
2022/08/12 13:06:31;;;;;;;1.60;1.02;;;;;;;28.03;35.78;101223.91;4990060;28;20228;-72
2022/08/12 13:08:58;;;;;;;3.38;1.10;;;;;;;27.75;36.06;101229.06;4987729;28;20304;-71
2022/08/12 13:11:28;;;;;;;3.03;1.40;;;;;;;27.63;36.36;101222.94;4994103;28;20205;-72
2022/08/12 13:13:56;;;;;;;1.58;1.15;;;;;;;27.86;36.30;101215.56;4999329;28;20196;-71
2022/08/12 13:16:28;;;;;;;1.63;1.00;;;;;;;28.14;36.28;101218.41;5001181;28;20228;-71
2022/08/12 13:18:56;;;;;;;1.58;1.02;;;;;;;28.35;35.44;101220.94;4992498;28;20182;-72
2022/08/12 13:21:22;;;;;;;1.10;1.00;;;;;;;28.35;34.73;101220.13;4992595;28;20201;-71
2022/08/12 13:23:50;;;;;;;1.33;1.20;;;;;;;28.01;34.41;101226.72;4992880;28;20902;-72